sensor_id;sensor_type;location;lat;lon;timestamp;P1;durP1;ratioP1;P2;durP2;ratioP2
68872;SDS011;55907;50.806;12.882;2023-07-28T00:00:51;461.0;;;431.5;;
68872;SDS011;55907;50.806;12.882;2023-07-28T00:03:53;449.3;;;420.1;;
68872;SDS011;55907;50.806;12.882;2023-07-28T00:06:54;467.6;;;436.9;;
68872;SDS011;55907;50.806;12.882;2023-07-28T00:09:56;459.3;;;428.7;;
68872;SDS011;55907;50.806;12.882;2023-07-28T00:12:57;470.1;;;438.6;;
68872;SDS011;55907;50.806;12.882;2023-07-28T00:15:58;459.3;;;428.3;;
68872;SDS011;55907;50.806;12.882;2023-07-28T00:19:00;449.9;;;419.5;;
68872;SDS011;55907;50.806;12.882;2023-07-28T00:22:01;473.5;;;441.7;;
68872;SDS011;55907;50.806;12.882;2023-07-28T00:25:03;476.0;;;444.2;;
68872;SDS011;55907;50.806;12.882;2023-07-28T00:28:04;484.4;;;452.0;;
68872;SDS011;55907;50.806;12.882;2023-07-28T00:31:06;485.8;;;453.2;;
68872;SDS011;55907;50.806;12.882;2023-07-28T00:34:07;491.5;;;458.4;;
68872;SDS011;55907;50.806;12.882;2023-07-28T00:37:08;502.6;;;468.9;;
68872;SDS011;55907;50.806;12.882;2023-07-28T00:40:10;529.7;;;494.7;;
68872;SDS011;55907;50.806;12.882;2023-07-28T00:43:11;554.5;;;518.3;;
68872;SDS011;55907;50.806;12.882;2023-07-28T00:46:13;577.1;;;539.6;;
68872;SDS011;55907;50.806;12.882;2023-07-28T00:49:14;609.3;;;569.5;;
68872;SDS011;55907;50.806;12.882;2023-07-28T00:52:16;621.2;;;580.1;;
68872;SDS011;55907;50.806;12.882;2023-07-28T00:55:17;655.5;;;611.4;;
68872;SDS011;55907;50.806;12.882;2023-07-28T00:58:19;671.2;;;625.4;;
68872;SDS011;55907;50.806;12.882;2023-07-28T01:01:20;692.1;;;644.0;;
68872;SDS011;55907;50.806;12.882;2023-07-28T01:04:21;707.1;;;657.2;;
68872;SDS011;55907;50.806;12.882;2023-07-28T01:07:24;719.8;;;668.6;;
68872;SDS011;55907;50.806;12.882;2023-07-28T01:10:25;734.9;;;682.4;;
68872;SDS011;55907;50.806;12.882;2023-07-28T01:13:26;738.9;;;686.8;;
68872;SDS011;55907;50.806;12.882;2023-07-28T01:16:27;724.9;;;674.5;;
68872;SDS011;55907;50.806;12.882;2023-07-28T01:19:28;711.3;;;661.9;;
68872;SDS011;55907;50.806;12.882;2023-07-28T01:22:39;720.6;;;671.5;;
68872;SDS011;55907;50.806;12.882;2023-07-28T01:25:32;702.4;;;654.9;;
68872;SDS011;55907;50.806;12.882;2023-07-28T01:28:33;685.1;;;639.4;;
68872;SDS011;55907;50.806;12.882;2023-07-28T01:31:34;662.8;;;618.6;;
68872;SDS011;55907;50.806;12.882;2023-07-28T01:34:36;639.6;;;596.6;;
68872;SDS011;55907;50.806;12.882;2023-07-28T01:37:37;656.2;;;612.2;;
68872;SDS011;55907;50.806;12.882;2023-07-28T01:40:38;638.4;;;595.1;;
68872;SDS011;55907;50.806;12.882;2023-07-28T01:43:40;618.7;;;576.5;;
68872;SDS011;55907;50.806;12.882;2023-07-28T01:46:41;611.1;;;569.1;;
68872;SDS011;55907;50.806;12.882;2023-07-28T01:49:43;594.5;;;553.0;;
68872;SDS011;55907;50.806;12.882;2023-07-28T01:52:44;560.5;;;520.1;;
68872;SDS011;55907;50.806;12.882;2023-07-28T01:55:46;511.1;;;473.1;;
68872;SDS011;55907;50.806;12.882;2023-07-28T01:58:47;480.4;;;443.6;;
68872;SDS011;55907;50.806;12.882;2023-07-28T02:01:48;467.9;;;431.9;;
68872;SDS011;55907;50.806;12.882;2023-07-28T02:04:50;445.5;;;410.6;;
68872;SDS011;55907;50.806;12.882;2023-07-28T02:07:51;456.7;;;421.0;;
68872;SDS011;55907;50.806;12.882;2023-07-28T02:10:53;431.4;;;397.7;;
68872;SDS011;55907;50.806;12.882;2023-07-28T02:13:54;435.7;;;401.5;;
68872;SDS011;55907;50.806;12.882;2023-07-28T02:16:56;424.8;;;391.3;;
68872;SDS011;55907;50.806;12.882;2023-07-28T02:19:57;411.1;;;378.5;;
68872;SDS011;55907;50.806;12.882;2023-07-28T02:22:58;400.3;;;367.9;;
68872;SDS011;55907;50.806;12.882;2023-07-28T02:26:00;392.3;;;360.3;;
68872;SDS011;55907;50.806;12.882;2023-07-28T02:29:01;380.3;;;348.7;;
68872;SDS011;55907;50.806;12.882;2023-07-28T02:32:03;369.2;;;338.3;;
68872;SDS011;55907;50.806;12.882;2023-07-28T02:35:04;367.8;;;337.2;;
68872;SDS011;55907;50.806;12.882;2023-07-28T02:38:05;371.7;;;341.2;;
68872;SDS011;55907;50.806;12.882;2023-07-28T02:41:07;387.4;;;356.5;;
68872;SDS011;55907;50.806;12.882;2023-07-28T02:44:08;399.1;;;367.9;;
68872;SDS011;55907;50.806;12.882;2023-07-28T02:47:10;407.8;;;376.5;;
68872;SDS011;55907;50.806;12.882;2023-07-28T02:50:11;409.9;;;378.9;;
68872;SDS011;55907;50.806;12.882;2023-07-28T02:53:13;417.0;;;385.3;;
68872;SDS011;55907;50.806;12.882;2023-07-28T02:56:14;424.6;;;392.5;;
68872;SDS011;55907;50.806;12.882;2023-07-28T02:59:16;435.1;;;402.6;;
68872;SDS011;55907;50.806;12.882;2023-07-28T03:02:17;444.5;;;412.0;;
68872;SDS011;55907;50.806;12.882;2023-07-28T03:05:18;444.9;;;412.7;;
68872;SDS011;55907;50.806;12.882;2023-07-28T03:08:20;452.0;;;419.4;;
68872;SDS011;55907;50.806;12.882;2023-07-28T03:11:21;430.8;;;400.1;;
68872;SDS011;55907;50.806;12.882;2023-07-28T03:14:23;437.8;;;406.8;;
68872;SDS011;55907;50.806;12.882;2023-07-28T03:17:24;434.7;;;404.6;;
68872;SDS011;55907;50.806;12.882;2023-07-28T03:20:26;456.2;;;425.0;;
68872;SDS011;55907;50.806;12.882;2023-07-28T03:23:27;481.4;;;449.1;;
68872;SDS011;55907;50.806;12.882;2023-07-28T03:26:28;497.5;;;463.2;;
68872;SDS011;55907;50.806;12.882;2023-07-28T03:29:30;509.6;;;474.2;;
68872;SDS011;55907;50.806;12.882;2023-07-28T03:32:31;508.1;;;472.0;;
68872;SDS011;55907;50.806;12.882;2023-07-28T03:35:33;481.3;;;447.5;;
68872;SDS011;55907;50.806;12.882;2023-07-28T03:38:34;465.1;;;433.1;;
68872;SDS011;55907;50.806;12.882;2023-07-28T03:41:36;453.4;;;423.0;;
68872;SDS011;55907;50.806;12.882;2023-07-28T03:44:37;432.7;;;404.5;;
68872;SDS011;55907;50.806;12.882;2023-07-28T03:47:39;400.9;;;375.1;;
68872;SDS011;55907;50.806;12.882;2023-07-28T03:50:40;387.5;;;362.5;;
68872;SDS011;55907;50.806;12.882;2023-07-28T03:53:41;361.1;;;337.6;;
68872;SDS011;55907;50.806;12.882;2023-07-28T03:56:43;350.7;;;327.8;;
68872;SDS011;55907;50.806;12.882;2023-07-28T03:59:44;346.3;;;323.7;;
68872;SDS011;55907;50.806;12.882;2023-07-28T04:02:46;347.2;;;324.1;;
68872;SDS011;55907;50.806;12.882;2023-07-28T04:05:47;340.7;;;317.9;;
68872;SDS011;55907;50.806;12.882;2023-07-28T04:08:49;343.3;;;320.5;;
68872;SDS011;55907;50.806;12.882;2023-07-28T04:11:50;347.7;;;324.3;;
68872;SDS011;55907;50.806;12.882;2023-07-28T04:14:51;345.1;;;321.9;;
68872;SDS011;55907;50.806;12.882;2023-07-28T04:17:53;337.1;;;314.3;;
68872;SDS011;55907;50.806;12.882;2023-07-28T04:20:54;350.9;;;327.2;;
68872;SDS011;55907;50.806;12.882;2023-07-28T04:23:56;355.4;;;331.7;;
68872;SDS011;55907;50.806;12.882;2023-07-28T04:26:57;367.6;;;343.2;;
68872;SDS011;55907;50.806;12.882;2023-07-28T04:29:59;355.2;;;331.4;;
68872;SDS011;55907;50.806;12.882;2023-07-28T04:33:00;350.6;;;326.8;;
68872;SDS011;55907;50.806;12.882;2023-07-28T04:36:02;347.1;;;322.8;;
68872;SDS011;55907;50.806;12.882;2023-07-28T04:39:03;331.1;;;307.0;;
68872;SDS011;55907;50.806;12.882;2023-07-28T04:42:04;319.9;;;295.4;;
68872;SDS011;55907;50.806;12.882;2023-07-28T04:45:06;322.2;;;296.7;;
68872;SDS011;55907;50.806;12.882;2023-07-28T04:48:07;314.3;;;288.8;;
68872;SDS011;55907;50.806;12.882;2023-07-28T04:51:08;327.4;;;300.8;;
68872;SDS011;55907;50.806;12.882;2023-07-28T04:54:10;330.6;;;303.7;;
68872;SDS011;55907;50.806;12.882;2023-07-28T04:57:11;336.6;;;309.1;;
68872;SDS011;55907;50.806;12.882;2023-07-28T05:00:13;350.4;;;322.3;;
68872;SDS011;55907;50.806;12.882;2023-07-28T05:03:14;354.5;;;326.0;;
68872;SDS011;55907;50.806;12.882;2023-07-28T05:06:16;362.4;;;333.1;;
68872;SDS011;55907;50.806;12.882;2023-07-28T05:09:17;352.0;;;322.3;;
68872;SDS011;55907;50.806;12.882;2023-07-28T05:12:18;358.7;;;327.3;;
68872;SDS011;55907;50.806;12.882;2023-07-28T05:15:20;365.3;;;331.8;;
68872;SDS011;55907;50.806;12.882;2023-07-28T05:18:21;372.1;;;336.5;;
68872;SDS011;55907;50.806;12.882;2023-07-28T05:21:23;381.8;;;344.6;;
68872;SDS011;55907;50.806;12.882;2023-07-28T05:24:24;413.9;;;372.7;;
68872;SDS011;55907;50.806;12.882;2023-07-28T05:27:25;446.5;;;402.0;;
68872;SDS011;55907;50.806;12.882;2023-07-28T05:30:27;488.7;;;440.6;;
68872;SDS011;55907;50.806;12.882;2023-07-28T05:33:28;527.7;;;476.4;;
68872;SDS011;55907;50.806;12.882;2023-07-28T05:36:30;568.1;;;513.6;;
68872;SDS011;55907;50.806;12.882;2023-07-28T05:39:31;610.7;;;552.8;;
68872;SDS011;55907;50.806;12.882;2023-07-28T05:42:32;656.3;;;594.8;;
68872;SDS011;55907;50.806;12.882;2023-07-28T05:45:34;692.4;;;628.5;;
68872;SDS011;55907;50.806;12.882;2023-07-28T05:48:35;741.3;;;674.8;;
68872;SDS011;55907;50.806;12.882;2023-07-28T05:51:37;782.3;;;715.4;;
68872;SDS011;55907;50.806;12.882;2023-07-28T05:54:38;818.6;;;752.9;;
68872;SDS011;55907;50.806;12.882;2023-07-28T05:57:40;833.5;;;769.0;;
68872;SDS011;55907;50.806;12.882;2023-07-28T06:00:41;834.8;;;771.2;;
68872;SDS011;55907;50.806;12.882;2023-07-28T06:03:42;808.8;;;747.8;;
68872;SDS011;55907;50.806;12.882;2023-07-28T06:06:44;798.1;;;737.7;;
68872;SDS011;55907;50.806;12.882;2023-07-28T06:09:45;776.7;;;718.6;;
68872;SDS011;55907;50.806;12.882;2023-07-28T06:12:47;768.1;;;711.1;;
68872;SDS011;55907;50.806;12.882;2023-07-28T06:15:48;747.1;;;692.1;;
68872;SDS011;55907;50.806;12.882;2023-07-28T06:18:50;739.1;;;685.4;;
68872;SDS011;55907;50.806;12.882;2023-07-28T06:21:51;740.0;;;686.1;;
68872;SDS011;55907;50.806;12.882;2023-07-28T06:24:52;713.0;;;660.8;;
68872;SDS011;55907;50.806;12.882;2023-07-28T06:27:54;713.3;;;660.8;;
68872;SDS011;55907;50.806;12.882;2023-07-28T06:30:55;727.2;;;673.9;;
68872;SDS011;55907;50.806;12.882;2023-07-28T06:33:57;743.4;;;688.6;;
68872;SDS011;55907;50.806;12.882;2023-07-28T06:36:58;754.8;;;700.2;;
68872;SDS011;55907;50.806;12.882;2023-07-28T06:39:59;765.2;;;711.0;;
68872;SDS011;55907;50.806;12.882;2023-07-28T06:43:01;759.2;;;706.5;;
68872;SDS011;55907;50.806;12.882;2023-07-28T06:46:02;717.4;;;668.5;;
68872;SDS011;55907;50.806;12.882;2023-07-28T06:49:04;696.9;;;650.0;;
68872;SDS011;55907;50.806;12.882;2023-07-28T06:52:05;670.5;;;625.6;;
68872;SDS011;55907;50.806;12.882;2023-07-28T06:55:07;668.4;;;623.9;;
68872;SDS011;55907;50.806;12.882;2023-07-28T06:58:08;641.6;;;599.2;;
68872;SDS011;55907;50.806;12.882;2023-07-28T07:01:09;632.8;;;590.9;;
68872;SDS011;55907;50.806;12.882;2023-07-28T07:04:11;624.0;;;581.4;;
68872;SDS011;55907;50.806;12.882;2023-07-28T07:07:12;635.4;;;589.9;;
68872;SDS011;55907;50.806;12.882;2023-07-28T07:10:14;645.9;;;598.6;;
68872;SDS011;55907;50.806;12.882;2023-07-28T07:13:15;636.8;;;588.9;;
68872;SDS011;55907;50.806;12.882;2023-07-28T07:16:17;635.6;;;586.2;;
68872;SDS011;55907;50.806;12.882;2023-07-28T07:19:18;639.9;;;588.1;;
68872;SDS011;55907;50.806;12.882;2023-07-28T07:22:19;632.0;;;579.5;;
68872;SDS011;55907;50.806;12.882;2023-07-28T07:25:21;618.4;;;564.3;;
68872;SDS011;55907;50.806;12.882;2023-07-28T07:28:22;641.6;;;583.9;;
68872;SDS011;55907;50.806;12.882;2023-07-28T07:31:23;656.6;;;596.8;;
68872;SDS011;55907;50.806;12.882;2023-07-28T07:34:25;668.6;;;606.2;;
68872;SDS011;55907;50.806;12.882;2023-07-28T07:37:26;692.8;;;625.8;;
68872;SDS011;55907;50.806;12.882;2023-07-28T07:40:28;749.2;;;675.0;;
68872;SDS011;55907;50.806;12.882;2023-07-28T07:43:29;765.6;;;689.9;;
68872;SDS011;55907;50.806;12.882;2023-07-28T07:46:30;778.3;;;701.3;;
68872;SDS011;55907;50.806;12.882;2023-07-28T07:49:32;778.9;;;702.0;;
68872;SDS011;55907;50.806;12.882;2023-07-28T07:52:33;777.0;;;699.3;;
68872;SDS011;55907;50.806;12.882;2023-07-28T07:55:35;757.7;;;682.0;;
68872;SDS011;55907;50.806;12.882;2023-07-28T07:58:36;729.6;;;656.1;;
68872;SDS011;55907;50.806;12.882;2023-07-28T08:01:38;728.9;;;655.7;;
68872;SDS011;55907;50.806;12.882;2023-07-28T08:04:39;708.5;;;637.7;;
68872;SDS011;55907;50.806;12.882;2023-07-28T08:07:40;692.7;;;623.8;;
68872;SDS011;55907;50.806;12.882;2023-07-28T08:10:42;699.0;;;631.8;;
68872;SDS011;55907;50.806;12.882;2023-07-28T08:13:43;710.1;;;643.7;;
68872;SDS011;55907;50.806;12.882;2023-07-28T08:16:45;719.3;;;652.5;;
68872;SDS011;55907;50.806;12.882;2023-07-28T08:19:46;737.1;;;667.4;;
68872;SDS011;55907;50.806;12.882;2023-07-28T08:22:47;827.2;;;747.8;;
68872;SDS011;55907;50.806;12.882;2023-07-28T08:25:49;913.8;;;823.1;;
68872;SDS011;55907;50.806;12.882;2023-07-28T08:28:50;973.5;;;871.9;;
68872;SDS011;55907;50.806;12.882;2023-07-28T08:31:51;1005.9;;;888.0;;
68872;SDS011;55907;50.806;12.882;2023-07-28T08:34:53;1068.6;;;890.7;;
68872;SDS011;55907;50.806;12.882;2023-07-28T08:37:54;1027.6;;;890.5;;
68872;SDS011;55907;50.806;12.882;2023-07-28T08:40:56;1000.4;;;894.9;;
68872;SDS011;55907;50.806;12.882;2023-07-28T08:43:57;941.9;;;851.8;;
68872;SDS011;55907;50.806;12.882;2023-07-28T08:46:59;861.3;;;788.4;;
68872;SDS011;55907;50.806;12.882;2023-07-28T08:50:00;846.8;;;780.5;;
68872;SDS011;55907;50.806;12.882;2023-07-28T08:53:01;912.6;;;842.7;;
68872;SDS011;55907;50.806;12.882;2023-07-28T08:56:03;867.2;;;788.3;;
68872;SDS011;55907;50.806;12.882;2023-07-28T08:59:04;1008.7;;;914.1;;
68872;SDS011;55907;50.806;12.882;2023-07-28T09:02:05;1450.4;;;999.9;;
68872;SDS011;55907;50.806;12.882;2023-07-28T09:05:07;1453.2;;;996.0;;
68872;SDS011;55907;50.806;12.882;2023-07-28T09:08:08;997.9;;;863.6;;
68872;SDS011;55907;50.806;12.882;2023-07-28T09:11:09;881.5;;;797.3;;
68872;SDS011;55907;50.806;12.882;2023-07-28T09:14:11;842.5;;;770.5;;
68872;SDS011;55907;50.806;12.882;2023-07-28T09:17:12;836.5;;;768.4;;
68872;SDS011;55907;50.806;12.882;2023-07-28T09:20:13;876.6;;;806.2;;
68872;SDS011;55907;50.806;12.882;2023-07-28T09:23:14;891.4;;;821.9;;
68872;SDS011;55907;50.806;12.882;2023-07-28T09:26:16;917.5;;;844.9;;
68872;SDS011;55907;50.806;12.882;2023-07-28T09:29:18;938.7;;;864.3;;
68872;SDS011;55907;50.806;12.882;2023-07-28T09:32:26;952.7;;;875.2;;
68872;SDS011;55907;50.806;12.882;2023-07-28T09:35:20;939.9;;;862.9;;
68872;SDS011;55907;50.806;12.882;2023-07-28T09:38:21;965.8;;;885.0;;
68872;SDS011;55907;50.806;12.882;2023-07-28T09:41:23;1022.0;;;934.2;;
68872;SDS011;55907;50.806;12.882;2023-07-28T09:44:24;1044.8;;;952.5;;
68872;SDS011;55907;50.806;12.882;2023-07-28T09:47:25;1076.9;;;979.5;;
68872;SDS011;55907;50.806;12.882;2023-07-28T09:50:27;1114.4;;;999.9;;
68872;SDS011;55907;50.806;12.882;2023-07-28T09:53:28;1164.7;;;999.9;;
68872;SDS011;55907;50.806;12.882;2023-07-28T09:56:29;1147.0;;;999.9;;
68872;SDS011;55907;50.806;12.882;2023-07-28T09:59:32;1188.1;;;999.9;;
68872;SDS011;55907;50.806;12.882;2023-07-28T10:02:32;1217.5;;;999.9;;
68872;SDS011;55907;50.806;12.882;2023-07-28T10:05:33;1219.4;;;999.9;;
68872;SDS011;55907;50.806;12.882;2023-07-28T10:08:35;1215.2;;;999.9;;
68872;SDS011;55907;50.806;12.882;2023-07-28T10:11:36;1200.6;;;999.9;;
68872;SDS011;55907;50.806;12.882;2023-07-28T10:14:37;1215.5;;;999.9;;
68872;SDS011;55907;50.806;12.882;2023-07-28T10:17:39;1204.4;;;999.9;;
68872;SDS011;55907;50.806;12.882;2023-07-28T10:20:42;1191.9;;;999.9;;
68872;SDS011;55907;50.806;12.882;2023-07-28T10:23:41;1184.2;;;999.9;;
68872;SDS011;55907;50.806;12.882;2023-07-28T10:26:43;1195.5;;;999.9;;
68872;SDS011;55907;50.806;12.882;2023-07-28T10:29:47;1189.4;;;999.9;;
68872;SDS011;55907;50.806;12.882;2023-07-28T10:32:48;1203.4;;;999.9;;
68872;SDS011;55907;50.806;12.882;2023-07-28T10:35:47;1227.3;;;999.9;;
68872;SDS011;55907;50.806;12.882;2023-07-28T10:38:51;1243.6;;;999.9;;
68872;SDS011;55907;50.806;12.882;2023-07-28T10:44:51;1302.8;;;999.9;;
68872;SDS011;55907;50.806;12.882;2023-07-28T10:47:52;1320.0;;;999.9;;
68872;SDS011;55907;50.806;12.882;2023-07-28T10:50:53;1308.0;;;999.9;;
68872;SDS011;55907;50.806;12.882;2023-07-28T10:53:55;1260.1;;;999.9;;
68872;SDS011;55907;50.806;12.882;2023-07-28T10:56:56;1231.8;;;999.9;;
68872;SDS011;55907;50.806;12.882;2023-07-28T10:59:59;1194.5;;;999.9;;
68872;SDS011;55907;50.806;12.882;2023-07-28T11:02:59;1156.4;;;999.9;;
68872;SDS011;55907;50.806;12.882;2023-07-28T11:06:00;1075.5;;;975.3;;
68872;SDS011;55907;50.806;12.882;2023-07-28T11:09:01;1011.0;;;902.1;;
68872;SDS011;55907;50.806;12.882;2023-07-28T11:12:03;972.3;;;857.3;;
68872;SDS011;55907;50.806;12.882;2023-07-28T11:15:05;1059.4;;;856.1;;
68872;SDS011;55907;50.806;12.882;2023-07-28T11:18:05;1056.5;;;859.8;;
68872;SDS011;55907;50.806;12.882;2023-07-28T11:21:07;965.3;;;845.2;;
68872;SDS011;55907;50.806;12.882;2023-07-28T11:24:08;952.6;;;846.9;;
68872;SDS011;55907;50.806;12.882;2023-07-28T11:30:11;967.0;;;864.8;;
68872;SDS011;55907;50.806;12.882;2023-07-28T11:33:12;957.8;;;859.1;;
68872;SDS011;55907;50.806;12.882;2023-07-28T11:36:18;967.3;;;865.6;;
68872;SDS011;55907;50.806;12.882;2023-07-28T11:39:15;994.6;;;887.9;;
68872;SDS011;55907;50.806;12.882;2023-07-28T11:42:16;988.6;;;886.7;;
68872;SDS011;55907;50.806;12.882;2023-07-28T11:45:18;989.4;;;885.7;;
68872;SDS011;55907;50.806;12.882;2023-07-28T11:48:19;998.6;;;893.7;;
68872;SDS011;55907;50.806;12.882;2023-07-28T11:51:20;1009.9;;;901.7;;
68872;SDS011;55907;50.806;12.882;2023-07-28T11:54:22;1003.5;;;897.9;;
68872;SDS011;55907;50.806;12.882;2023-07-28T11:57:23;1003.7;;;894.5;;
68872;SDS011;55907;50.806;12.882;2023-07-28T12:00:28;1019.8;;;907.6;;
68872;SDS011;55907;50.806;12.882;2023-07-28T12:03:29;1019.5;;;908.1;;
68872;SDS011;55907;50.806;12.882;2023-07-28T12:06:27;1011.1;;;899.6;;
68872;SDS011;55907;50.806;12.882;2023-07-28T12:09:28;1129.8;;;908.9;;
68872;SDS011;55907;50.806;12.882;2023-07-28T12:12:30;1068.2;;;872.2;;
68872;SDS011;55907;50.806;12.882;2023-07-28T12:15:31;1024.1;;;864.6;;
68872;SDS011;55907;50.806;12.882;2023-07-28T12:18:32;968.7;;;863.2;;
68872;SDS011;55907;50.806;12.882;2023-07-28T12:21:33;988.8;;;870.9;;
68872;SDS011;55907;50.806;12.882;2023-07-28T12:24:35;1027.1;;;876.0;;
68872;SDS011;55907;50.806;12.882;2023-07-28T12:27:36;1007.2;;;889.3;;
68872;SDS011;55907;50.806;12.882;2023-07-28T12:30:37;991.5;;;886.6;;
68872;SDS011;55907;50.806;12.882;2023-07-28T12:33:39;1024.0;;;918.2;;
68872;SDS011;55907;50.806;12.882;2023-07-28T12:36:40;1012.3;;;911.7;;
68872;SDS011;55907;50.806;12.882;2023-07-28T12:39:41;1014.4;;;914.4;;
68872;SDS011;55907;50.806;12.882;2023-07-28T12:42:43;1015.8;;;914.8;;
68872;SDS011;55907;50.806;12.882;2023-07-28T12:45:44;1005.0;;;905.2;;
68872;SDS011;55907;50.806;12.882;2023-07-28T12:48:45;996.7;;;898.2;;
68872;SDS011;55907;50.806;12.882;2023-07-28T12:51:47;987.0;;;888.8;;
68872;SDS011;55907;50.806;12.882;2023-07-28T12:54:48;977.4;;;880.4;;
68872;SDS011;55907;50.806;12.882;2023-07-28T12:57:50;972.3;;;875.6;;
68872;SDS011;55907;50.806;12.882;2023-07-28T13:00:51;978.5;;;880.5;;
68872;SDS011;55907;50.806;12.882;2023-07-28T13:03:52;960.9;;;866.1;;
68872;SDS011;55907;50.806;12.882;2023-07-28T13:06:54;957.0;;;863.7;;
68872;SDS011;55907;50.806;12.882;2023-07-28T13:09:55;956.9;;;865.2;;
68872;SDS011;55907;50.806;12.882;2023-07-28T13:12:56;918.4;;;833.9;;
68872;SDS011;55907;50.806;12.882;2023-07-28T13:15:58;950.2;;;862.6;;
68872;SDS011;55907;50.806;12.882;2023-07-28T13:18:59;951.7;;;859.7;;
68872;SDS011;55907;50.806;12.882;2023-07-28T13:22:00;935.2;;;844.9;;
68872;SDS011;55907;50.806;12.882;2023-07-28T13:25:02;927.5;;;839.5;;
68872;SDS011;55907;50.806;12.882;2023-07-28T13:28:03;934.4;;;844.8;;
68872;SDS011;55907;50.806;12.882;2023-07-28T13:31:04;941.4;;;848.1;;
68872;SDS011;55907;50.806;12.882;2023-07-28T13:34:06;945.8;;;849.0;;
68872;SDS011;55907;50.806;12.882;2023-07-28T13:37:07;949.6;;;848.5;;
68872;SDS011;55907;50.806;12.882;2023-07-28T13:40:08;949.3;;;847.6;;
68872;SDS011;55907;50.806;12.882;2023-07-28T13:43:10;948.7;;;850.0;;
68872;SDS011;55907;50.806;12.882;2023-07-28T13:46:11;953.2;;;853.9;;
68872;SDS011;55907;50.806;12.882;2023-07-28T13:49:12;952.0;;;853.9;;
68872;SDS011;55907;50.806;12.882;2023-07-28T13:52:14;941.6;;;846.6;;
68872;SDS011;55907;50.806;12.882;2023-07-28T13:55:15;931.0;;;839.6;;
68872;SDS011;55907;50.806;12.882;2023-07-28T13:58:16;925.2;;;836.5;;
68872;SDS011;55907;50.806;12.882;2023-07-28T14:01:18;924.6;;;837.6;;
68872;SDS011;55907;50.806;12.882;2023-07-28T14:04:19;909.0;;;825.5;;
68872;SDS011;55907;50.806;12.882;2023-07-28T14:07:20;912.2;;;829.1;;
68872;SDS011;55907;50.806;12.882;2023-07-28T14:10:22;906.5;;;821.9;;
68872;SDS011;55907;50.806;12.882;2023-07-28T14:13:23;915.6;;;830.2;;
68872;SDS011;55907;50.806;12.882;2023-07-28T14:16:25;933.4;;;846.8;;
68872;SDS011;55907;50.806;12.882;2023-07-28T14:19:26;939.0;;;851.7;;
68872;SDS011;55907;50.806;12.882;2023-07-28T14:22:27;944.8;;;853.4;;
68872;SDS011;55907;50.806;12.882;2023-07-28T14:25:29;906.5;;;818.5;;
68872;SDS011;55907;50.806;12.882;2023-07-28T14:28:30;916.6;;;822.9;;
68872;SDS011;55907;50.806;12.882;2023-07-28T14:31:31;946.3;;;821.7;;
68872;SDS011;55907;50.806;12.882;2023-07-28T14:34:33;1050.4;;;840.9;;
68872;SDS011;55907;50.806;12.882;2023-07-28T14:37:34;1121.0;;;862.6;;
68872;SDS011;55907;50.806;12.882;2023-07-28T14:40:36;1165.0;;;848.8;;
68872;SDS011;55907;50.806;12.882;2023-07-28T14:43:37;1219.1;;;856.0;;
68872;SDS011;55907;50.806;12.882;2023-07-28T14:46:38;1258.2;;;871.5;;
68872;SDS011;55907;50.806;12.882;2023-07-28T14:49:40;1268.9;;;905.4;;
68872;SDS011;55907;50.806;12.882;2023-07-28T14:52:41;1227.8;;;911.7;;
68872;SDS011;55907;50.806;12.882;2023-07-28T14:55:42;1189.7;;;901.8;;
68872;SDS011;55907;50.806;12.882;2023-07-28T14:58:44;1165.4;;;896.9;;
68872;SDS011;55907;50.806;12.882;2023-07-28T15:01:45;1124.5;;;887.0;;
68872;SDS011;55907;50.806;12.882;2023-07-28T15:04:46;1098.2;;;877.4;;
68872;SDS011;55907;50.806;12.882;2023-07-28T15:07:48;1068.6;;;872.9;;
68872;SDS011;55907;50.806;12.882;2023-07-28T15:10:49;1045.9;;;876.8;;
68872;SDS011;55907;50.806;12.882;2023-07-28T15:13:51;1019.9;;;887.8;;
68872;SDS011;55907;50.806;12.882;2023-07-28T15:16:52;1006.5;;;896.9;;
68872;SDS011;55907;50.806;12.882;2023-07-28T15:19:53;982.2;;;880.1;;
68872;SDS011;55907;50.806;12.882;2023-07-28T15:22:55;973.1;;;876.9;;
68872;SDS011;55907;50.806;12.882;2023-07-28T15:25:56;956.0;;;863.8;;
68872;SDS011;55907;50.806;12.882;2023-07-28T15:28:57;947.2;;;854.9;;
68872;SDS011;55907;50.806;12.882;2023-07-28T15:31:59;930.9;;;839.2;;
68872;SDS011;55907;50.806;12.882;2023-07-28T15:35:00;916.1;;;825.6;;
68872;SDS011;55907;50.806;12.882;2023-07-28T15:38:02;898.6;;;807.9;;
68872;SDS011;55907;50.806;12.882;2023-07-28T15:41:03;885.0;;;792.8;;
68872;SDS011;55907;50.806;12.882;2023-07-28T15:44:04;873.1;;;780.0;;
68872;SDS011;55907;50.806;12.882;2023-07-28T15:47:06;873.0;;;779.9;;
68872;SDS011;55907;50.806;12.882;2023-07-28T15:50:07;864.8;;;774.7;;
68872;SDS011;55907;50.806;12.882;2023-07-28T15:53:08;839.5;;;750.3;;
68872;SDS011;55907;50.806;12.882;2023-07-28T15:56:10;835.9;;;745.5;;
68872;SDS011;55907;50.806;12.882;2023-07-28T15:59:11;832.1;;;735.6;;
68872;SDS011;55907;50.806;12.882;2023-07-28T16:02:12;842.0;;;733.8;;
68872;SDS011;55907;50.806;12.882;2023-07-28T16:05:14;857.5;;;739.2;;
68872;SDS011;55907;50.806;12.882;2023-07-28T16:08:15;840.6;;;735.0;;
68872;SDS011;55907;50.806;12.882;2023-07-28T16:11:16;840.5;;;742.3;;
68872;SDS011;55907;50.806;12.882;2023-07-28T16:14:18;863.6;;;760.6;;
68872;SDS011;55907;50.806;12.882;2023-07-28T16:17:19;869.0;;;773.5;;
68872;SDS011;55907;50.806;12.882;2023-07-28T16:20:21;873.4;;;777.9;;
68872;SDS011;55907;50.806;12.882;2023-07-28T16:23:22;880.3;;;784.4;;
68872;SDS011;55907;50.806;12.882;2023-07-28T16:26:23;916.5;;;815.0;;
68872;SDS011;55907;50.806;12.882;2023-07-28T16:29:25;912.0;;;812.2;;
68872;SDS011;55907;50.806;12.882;2023-07-28T16:32:26;916.4;;;817.1;;
68872;SDS011;55907;50.806;12.882;2023-07-28T16:35:27;905.9;;;808.1;;
68872;SDS011;55907;50.806;12.882;2023-07-28T16:38:29;905.7;;;808.4;;
68872;SDS011;55907;50.806;12.882;2023-07-28T16:41:30;913.9;;;816.0;;
68872;SDS011;55907;50.806;12.882;2023-07-28T16:44:31;903.5;;;807.1;;
68872;SDS011;55907;50.806;12.882;2023-07-28T16:47:33;917.7;;;819.8;;
68872;SDS011;55907;50.806;12.882;2023-07-28T16:50:34;961.1;;;853.4;;
68872;SDS011;55907;50.806;12.882;2023-07-28T16:53:36;931.3;;;830.4;;
68872;SDS011;55907;50.806;12.882;2023-07-28T16:56:37;926.1;;;826.0;;
68872;SDS011;55907;50.806;12.882;2023-07-28T16:59:38;930.2;;;829.2;;
68872;SDS011;55907;50.806;12.882;2023-07-28T17:02:40;932.6;;;831.2;;
68872;SDS011;55907;50.806;12.882;2023-07-28T17:05:41;921.0;;;821.2;;
68872;SDS011;55907;50.806;12.882;2023-07-28T17:08:42;920.1;;;820.9;;
68872;SDS011;55907;50.806;12.882;2023-07-28T17:11:44;920.0;;;821.5;;
68872;SDS011;55907;50.806;12.882;2023-07-28T17:14:46;912.8;;;815.5;;
68872;SDS011;55907;50.806;12.882;2023-07-28T17:17:46;912.3;;;815.2;;
68872;SDS011;55907;50.806;12.882;2023-07-28T17:20:48;921.1;;;822.4;;
68872;SDS011;55907;50.806;12.882;2023-07-28T17:23:49;903.2;;;808.0;;
68872;SDS011;55907;50.806;12.882;2023-07-28T17:26:51;890.8;;;799.6;;